sensor_id;sensor_type;location;lat;lon;timestamp;P1;durP1;ratioP1;P2;durP2;ratioP2
75285;SDS011;63879;46.064;14.532;2022-12-20T07:01:04;29.50;;;12.85;;
75285;SDS011;63879;46.064;14.532;2022-12-20T07:03:32;34.67;;;14.55;;
75285;SDS011;63879;46.064;14.532;2022-12-20T07:05:58;33.92;;;13.88;;
75285;SDS011;63879;46.064;14.532;2022-12-20T07:08:23;31.55;;;13.32;;
75285;SDS011;63879;46.064;14.532;2022-12-20T07:10:49;37.45;;;14.40;;
75285;SDS011;63879;46.064;14.532;2022-12-20T07:13:16;32.05;;;14.23;;
75285;SDS011;63879;46.064;14.532;2022-12-20T07:15:42;38.17;;;15.35;;
75285;SDS011;63879;46.064;14.532;2022-12-20T07:18:07;40.23;;;15.67;;
75285;SDS011;63879;46.064;14.532;2022-12-20T07:20:33;35.45;;;14.63;;
75285;SDS011;63879;46.064;14.532;2022-12-20T07:23:00;32.50;;;14.95;;
75285;SDS011;63879;46.064;14.532;2022-12-20T07:25:25;35.60;;;13.93;;
75285;SDS011;63879;46.064;14.532;2022-12-20T07:27:51;37.27;;;16.47;;
75285;SDS011;63879;46.064;14.532;2022-12-20T07:30:17;33.67;;;14.65;;
75285;SDS011;63879;46.064;14.532;2022-12-20T07:32:43;34.53;;;15.15;;
75285;SDS011;63879;46.064;14.532;2022-12-20T07:35:09;33.42;;;14.60;;
75285;SDS011;63879;46.064;14.532;2022-12-20T07:37:35;33.00;;;16.15;;
75285;SDS011;63879;46.064;14.532;2022-12-20T07:40:01;30.65;;;13.15;;
75285;SDS011;63879;46.064;14.532;2022-12-20T07:42:26;35.10;;;15.18;;
75285;SDS011;63879;46.064;14.532;2022-12-20T07:44:52;31.97;;;14.20;;
75285;SDS011;63879;46.064;14.532;2022-12-20T07:47:17;29.83;;;14.30;;
75285;SDS011;63879;46.064;14.532;2022-12-20T07:49:43;33.38;;;15.15;;
75285;SDS011;63879;46.064;14.532;2022-12-20T07:52:08;33.55;;;15.30;;
75285;SDS011;63879;46.064;14.532;2022-12-20T07:54:42;34.25;;;15.48;;
75285;SDS011;63879;46.064;14.532;2022-12-20T07:57:13;35.40;;;17.38;;
75285;SDS011;63879;46.064;14.532;2022-12-20T07:59:43;35.40;;;16.08;;
75285;SDS011;63879;46.064;14.532;2022-12-20T08:02:12;40.50;;;16.45;;
75285;SDS011;63879;46.064;14.532;2022-12-20T08:04:42;35.38;;;16.13;;
75285;SDS011;63879;46.064;14.532;2022-12-20T08:07:08;34.53;;;16.38;;
75285;SDS011;63879;46.064;14.532;2022-12-20T08:09:35;36.75;;;15.77;;
75285;SDS011;63879;46.064;14.532;2022-12-20T08:12:02;36.63;;;15.35;;
75285;SDS011;63879;46.064;14.532;2022-12-20T08:14:28;36.08;;;16.00;;
75285;SDS011;63879;46.064;14.532;2022-12-20T08:16:53;42.03;;;18.05;;
75285;SDS011;63879;46.064;14.532;2022-12-20T08:19:19;39.40;;;15.90;;
75285;SDS011;63879;46.064;14.532;2022-12-20T08:21:44;39.38;;;16.08;;
75285;SDS011;63879;46.064;14.532;2022-12-20T08:24:09;31.30;;;14.97;;
75285;SDS011;63879;46.064;14.532;2022-12-20T08:26:36;40.65;;;15.48;;
75285;SDS011;63879;46.064;14.532;2022-12-20T08:29:02;35.90;;;15.07;;
75285;SDS011;63879;46.064;14.532;2022-12-20T08:31:28;33.72;;;15.60;;
75285;SDS011;63879;46.064;14.532;2022-12-20T08:33:53;35.30;;;14.30;;
75285;SDS011;63879;46.064;14.532;2022-12-20T08:36:19;39.72;;;16.00;;
75285;SDS011;63879;46.064;14.532;2022-12-20T08:38:44;38.20;;;16.17;;
75285;SDS011;63879;46.064;14.532;2022-12-20T08:41:11;38.65;;;15.82;;
75285;SDS011;63879;46.064;14.532;2022-12-20T08:43:39;36.33;;;15.65;;
75285;SDS011;63879;46.064;14.532;2022-12-20T08:46:05;37.42;;;16.40;;
75285;SDS011;63879;46.064;14.532;2022-12-20T08:48:31;41.95;;;16.33;;
75285;SDS011;63879;46.064;14.532;2022-12-20T08:50:59;38.47;;;15.45;;
75285;SDS011;63879;46.064;14.532;2022-12-20T08:53:26;34.25;;;15.02;;
75285;SDS011;63879;46.064;14.532;2022-12-20T08:55:52;39.88;;;16.48;;
75285;SDS011;63879;46.064;14.532;2022-12-20T08:58:18;39.70;;;15.65;;
75285;SDS011;63879;46.064;14.532;2022-12-20T09:00:45;35.75;;;15.85;;
75285;SDS011;63879;46.064;14.532;2022-12-20T09:03:11;39.20;;;15.18;;
75285;SDS011;63879;46.064;14.532;2022-12-20T09:05:46;36.72;;;15.18;;
75285;SDS011;63879;46.064;14.532;2022-12-20T09:10:47;33.42;;;14.73;;
75285;SDS011;63879;46.064;14.532;2022-12-20T09:13:12;34.83;;;14.37;;
75285;SDS011;63879;46.064;14.532;2022-12-20T09:15:37;34.30;;;13.90;;
75285;SDS011;63879;46.064;14.532;2022-12-20T09:18:03;35.83;;;15.45;;
75285;SDS011;63879;46.064;14.532;2022-12-20T09:20:29;40.83;;;15.77;;
75285;SDS011;63879;46.064;14.532;2022-12-20T09:22:56;36.83;;;15.45;;
75285;SDS011;63879;46.064;14.532;2022-12-20T09:25:22;33.45;;;15.00;;
75285;SDS011;63879;46.064;14.532;2022-12-20T09:27:48;38.03;;;15.93;;
75285;SDS011;63879;46.064;14.532;2022-12-20T09:30:13;34.22;;;14.63;;
75285;SDS011;63879;46.064;14.532;2022-12-20T09:32:38;40.75;;;16.95;;
75285;SDS011;63879;46.064;14.532;2022-12-20T09:35:04;38.03;;;16.53;;
75285;SDS011;63879;46.064;14.532;2022-12-20T09:37:30;36.75;;;16.40;;
75285;SDS011;63879;46.064;14.532;2022-12-20T09:39:56;33.35;;;16.50;;
75285;SDS011;63879;46.064;14.532;2022-12-20T09:42:23;40.53;;;17.08;;
75285;SDS011;63879;46.064;14.532;2022-12-20T09:44:50;38.22;;;17.40;;
75285;SDS011;63879;46.064;14.532;2022-12-20T09:47:16;36.10;;;16.88;;
75285;SDS011;63879;46.064;14.532;2022-12-20T09:49:46;39.83;;;16.33;;
75285;SDS011;63879;46.064;14.532;2022-12-20T10:00:10;34.50;;;15.88;;
75285;SDS011;63879;46.064;14.532;2022-12-20T10:02:38;42.30;;;17.45;;
75285;SDS011;63879;46.064;14.532;2022-12-20T10:05:04;36.80;;;16.52;;
75285;SDS011;63879;46.064;14.532;2022-12-20T10:10:16;35.83;;;16.58;;
75285;SDS011;63879;46.064;14.532;2022-12-20T10:15:22;37.83;;;16.33;;
75285;SDS011;63879;46.064;14.532;2022-12-20T10:26:32;35.13;;;15.13;;
75285;SDS011;63879;46.064;14.532;2022-12-20T10:28:58;37.55;;;16.20;;
75285;SDS011;63879;46.064;14.532;2022-12-20T10:31:23;38.13;;;15.85;;
75285;SDS011;63879;46.064;14.532;2022-12-20T10:33:49;36.00;;;16.20;;
75285;SDS011;63879;46.064;14.532;2022-12-20T10:38:52;36.08;;;15.25;;
75285;SDS011;63879;46.064;14.532;2022-12-20T10:41:28;37.33;;;17.70;;
75285;SDS011;63879;46.064;14.532;2022-12-20T10:43:57;31.23;;;14.63;;
75285;SDS011;63879;46.064;14.532;2022-12-20T10:46:34;37.03;;;16.83;;
75285;SDS011;63879;46.064;14.532;2022-12-20T10:52:01;34.83;;;15.77;;
75285;SDS011;63879;46.064;14.532;2022-12-20T10:54:33;29.92;;;14.88;;
75285;SDS011;63879;46.064;14.532;2022-12-20T10:57:02;37.55;;;14.73;;
75285;SDS011;63879;46.064;14.532;2022-12-20T10:59:48;35.60;;;15.70;;
75285;SDS011;63879;46.064;14.532;2022-12-20T11:04:56;32.92;;;15.15;;
75285;SDS011;63879;46.064;14.532;2022-12-20T11:07:34;30.38;;;14.18;;
75285;SDS011;63879;46.064;14.532;2022-12-20T11:10:02;33.05;;;15.70;;
75285;SDS011;63879;46.064;14.532;2022-12-20T11:12:35;33.75;;;16.02;;
75285;SDS011;63879;46.064;14.532;2022-12-20T11:15:15;39.15;;;17.00;;
75285;SDS011;63879;46.064;14.532;2022-12-20T11:17:45;34.97;;;14.85;;
75285;SDS011;63879;46.064;14.532;2022-12-20T11:23:00;33.30;;;15.38;;
75285;SDS011;63879;46.064;14.532;2022-12-20T11:28:29;34.50;;;15.67;;
75285;SDS011;63879;46.064;14.532;2022-12-20T11:36:40;34.70;;;15.45;;
75285;SDS011;63879;46.064;14.532;2022-12-20T11:41:58;34.25;;;16.25;;
75285;SDS011;63879;46.064;14.532;2022-12-20T11:44:36;35.40;;;16.80;;
75285;SDS011;63879;46.064;14.532;2022-12-20T11:52:38;35.70;;;16.55;;
75285;SDS011;63879;46.064;14.532;2022-12-20T11:55:14;45.55;;;16.77;;
75285;SDS011;63879;46.064;14.532;2022-12-20T12:00:16;34.25;;;15.32;;
75285;SDS011;63879;46.064;14.532;2022-12-20T12:02:47;36.75;;;15.60;;
75285;SDS011;63879;46.064;14.532;2022-12-20T12:05:18;35.40;;;16.88;;
75285;SDS011;63879;46.064;14.532;2022-12-20T12:07:46;32.33;;;15.38;;
75285;SDS011;63879;46.064;14.532;2022-12-20T12:10:24;37.20;;;17.13;;
75285;SDS011;63879;46.064;14.532;2022-12-20T12:12:57;39.10;;;16.27;;
75285;SDS011;63879;46.064;14.532;2022-12-20T12:15:39;37.80;;;15.88;;
75285;SDS011;63879;46.064;14.532;2022-12-20T12:18:10;38.63;;;15.18;;
75285;SDS011;63879;46.064;14.532;2022-12-20T12:20:58;32.45;;;14.70;;
75285;SDS011;63879;46.064;14.532;2022-12-20T12:23:52;36.58;;;15.30;;
75285;SDS011;63879;46.064;14.532;2022-12-20T12:26:31;33.97;;;15.57;;
75285;SDS011;63879;46.064;14.532;2022-12-20T12:34:32;35.65;;;16.52;;
75285;SDS011;63879;46.064;14.532;2022-12-20T12:40:15;33.30;;;15.57;;
75285;SDS011;63879;46.064;14.532;2022-12-20T12:45:33;37.85;;;17.67;;
75285;SDS011;63879;46.064;14.532;2022-12-20T12:51:04;38.10;;;16.85;;
75285;SDS011;63879;46.064;14.532;2022-12-20T12:53:29;40.47;;;18.25;;
75285;SDS011;63879;46.064;14.532;2022-12-20T12:55:58;35.83;;;16.95;;
75285;SDS011;63879;46.064;14.532;2022-12-20T13:04:24;35.00;;;16.88;;
75285;SDS011;63879;46.064;14.532;2022-12-20T13:11:50;41.95;;;18.30;;
75285;SDS011;63879;46.064;14.532;2022-12-20T13:16:42;39.17;;;18.87;;
75285;SDS011;63879;46.064;14.532;2022-12-20T13:19:12;37.92;;;17.65;;
75285;SDS011;63879;46.064;14.532;2022-12-20T13:40:42;38.15;;;17.55;;
75285;SDS011;63879;46.064;14.532;2022-12-20T13:45:44;41.60;;;19.65;;
75285;SDS011;63879;46.064;14.532;2022-12-20T13:48:13;43.88;;;20.08;;
75285;SDS011;63879;46.064;14.532;2022-12-20T13:50:49;40.90;;;19.10;;
75285;SDS011;63879;46.064;14.532;2022-12-20T13:53:18;45.22;;;20.73;;
75285;SDS011;63879;46.064;14.532;2022-12-20T13:55:44;42.70;;;20.52;;
75285;SDS011;63879;46.064;14.532;2022-12-20T14:01:06;42.92;;;19.42;;
75285;SDS011;63879;46.064;14.532;2022-12-20T14:03:43;47.80;;;20.35;;
75285;SDS011;63879;46.064;14.532;2022-12-20T14:06:10;45.35;;;19.80;;
75285;SDS011;63879;46.064;14.532;2022-12-20T14:08:39;49.70;;;21.75;;
75285;SDS011;63879;46.064;14.532;2022-12-20T14:11:16;44.33;;;19.00;;
75285;SDS011;63879;46.064;14.532;2022-12-20T14:13:50;41.67;;;18.50;;
75285;SDS011;63879;46.064;14.532;2022-12-20T14:16:19;41.70;;;20.05;;
75285;SDS011;63879;46.064;14.532;2022-12-20T14:18:50;45.70;;;18.95;;
75285;SDS011;63879;46.064;14.532;2022-12-20T14:21:37;42.25;;;18.20;;
75285;SDS011;63879;46.064;14.532;2022-12-20T14:24:08;46.40;;;19.50;;
75285;SDS011;63879;46.064;14.532;2022-12-20T14:26:40;40.40;;;17.70;;
75285;SDS011;63879;46.064;14.532;2022-12-20T14:29:10;45.72;;;19.38;;
75285;SDS011;63879;46.064;14.532;2022-12-20T14:31:37;44.95;;;20.30;;
75285;SDS011;63879;46.064;14.532;2022-12-20T14:34:05;46.00;;;19.55;;
75285;SDS011;63879;46.064;14.532;2022-12-20T14:36:36;43.33;;;19.90;;
75285;SDS011;63879;46.064;14.532;2022-12-20T14:42:13;45.67;;;20.00;;
75285;SDS011;63879;46.064;14.532;2022-12-20T14:44:38;44.28;;;19.30;;
75285;SDS011;63879;46.064;14.532;2022-12-20T14:47:11;45.60;;;19.83;;
75285;SDS011;63879;46.064;14.532;2022-12-20T14:49:39;45.35;;;19.65;;
75285;SDS011;63879;46.064;14.532;2022-12-20T15:00:53;42.58;;;19.27;;
75285;SDS011;63879;46.064;14.532;2022-12-20T15:02:49;43.88;;;19.80;;
75285;SDS011;63879;46.064;14.532;2022-12-20T15:08:15;46.85;;;19.65;;
75285;SDS011;63879;46.064;14.532;2022-12-20T15:10:51;45.63;;;18.33;;
75285;SDS011;63879;46.064;14.532;2022-12-20T15:13:19;43.55;;;19.40;;
75285;SDS011;63879;46.064;14.532;2022-12-20T15:15:59;42.35;;;19.05;;
75285;SDS011;63879;46.064;14.532;2022-12-20T15:18:41;50.45;;;20.02;;
75285;SDS011;63879;46.064;14.532;2022-12-20T15:21:13;50.42;;;20.42;;
75285;SDS011;63879;46.064;14.532;2022-12-20T15:23:48;46.65;;;19.70;;
75285;SDS011;63879;46.064;14.532;2022-12-20T15:26:18;48.78;;;20.73;;
75285;SDS011;63879;46.064;14.532;2022-12-20T15:28:50;45.08;;;19.42;;
75285;SDS011;63879;46.064;14.532;2022-12-20T15:31:17;47.35;;;20.80;;
75285;SDS011;63879;46.064;14.532;2022-12-20T15:33:43;47.60;;;21.95;;
75285;SDS011;63879;46.064;14.532;2022-12-20T15:36:15;56.85;;;23.35;;
75285;SDS011;63879;46.064;14.532;2022-12-20T15:38:42;55.22;;;23.48;;
75285;SDS011;63879;46.064;14.532;2022-12-20T15:41:12;52.95;;;23.20;;
75285;SDS011;63879;46.064;14.532;2022-12-20T15:43:41;48.28;;;21.42;;
75285;SDS011;63879;46.064;14.532;2022-12-20T15:46:07;46.95;;;19.60;;
75285;SDS011;63879;46.064;14.532;2022-12-20T15:48:33;43.55;;;20.08;;
75285;SDS011;63879;46.064;14.532;2022-12-20T15:50:58;43.03;;;20.13;;
75285;SDS011;63879;46.064;14.532;2022-12-20T15:53:29;43.67;;;20.65;;
75285;SDS011;63879;46.064;14.532;2022-12-20T15:55:57;40.78;;;19.30;;
75285;SDS011;63879;46.064;14.532;2022-12-20T15:58:23;43.85;;;19.75;;
75285;SDS011;63879;46.064;14.532;2022-12-20T16:00:49;47.33;;;21.83;;
75285;SDS011;63879;46.064;14.532;2022-12-20T16:03:19;44.47;;;20.17;;
75285;SDS011;63879;46.064;14.532;2022-12-20T16:05:46;46.88;;;21.98;;
75285;SDS011;63879;46.064;14.532;2022-12-20T16:08:26;45.20;;;21.42;;
75285;SDS011;63879;46.064;14.532;2022-12-20T16:10:51;49.33;;;21.15;;
75285;SDS011;63879;46.064;14.532;2022-12-20T16:13:21;48.38;;;22.27;;
75285;SDS011;63879;46.064;14.532;2022-12-20T16:15:47;57.92;;;24.80;;
75285;SDS011;63879;46.064;14.532;2022-12-20T16:18:13;49.38;;;20.08;;
75285;SDS011;63879;46.064;14.532;2022-12-20T16:20:38;41.93;;;20.67;;
75285;SDS011;63879;46.064;14.532;2022-12-20T16:23:04;44.10;;;19.48;;
75285;SDS011;63879;46.064;14.532;2022-12-20T16:25:32;45.28;;;22.73;;
75285;SDS011;63879;46.064;14.532;2022-12-20T16:27:59;39.85;;;19.58;;
75285;SDS011;63879;46.064;14.532;2022-12-20T16:30:25;45.30;;;20.50;;
75285;SDS011;63879;46.064;14.532;2022-12-20T16:32:50;47.58;;;21.15;;
75285;SDS011;63879;46.064;14.532;2022-12-20T16:35:23;46.83;;;22.55;;
75285;SDS011;63879;46.064;14.532;2022-12-20T16:37:51;46.25;;;19.15;;
75285;SDS011;63879;46.064;14.532;2022-12-20T16:40:17;46.40;;;20.02;;
75285;SDS011;63879;46.064;14.532;2022-12-20T16:42:43;42.92;;;20.20;;
75285;SDS011;63879;46.064;14.532;2022-12-20T16:45:19;42.22;;;19.52;;
75285;SDS011;63879;46.064;14.532;2022-12-20T16:47:47;41.13;;;19.45;;
75285;SDS011;63879;46.064;14.532;2022-12-20T16:50:13;40.92;;;19.77;;
75285;SDS011;63879;46.064;14.532;2022-12-20T16:52:42;47.97;;;20.63;;
75285;SDS011;63879;46.064;14.532;2022-12-20T17:01:38;41.92;;;18.50;;
75285;SDS011;63879;46.064;14.532;2022-12-20T17:04:28;43.60;;;20.05;;
75285;SDS011;63879;46.064;14.532;2022-12-20T17:17:28;53.03;;;24.42;;
75285;SDS011;63879;46.064;14.532;2022-12-20T17:22:57;39.22;;;19.77;;
75285;SDS011;63879;46.064;14.532;2022-12-20T17:25:59;39.00;;;18.63;;
75285;SDS011;63879;46.064;14.532;2022-12-20T17:28:33;64.75;;;31.50;;
75285;SDS011;63879;46.064;14.532;2022-12-20T17:30:59;101.35;;;46.17;;
75285;SDS011;63879;46.064;14.532;2022-12-20T17:33:25;72.50;;;31.15;;
75285;SDS011;63879;46.064;14.532;2022-12-20T17:35:57;44.35;;;21.40;;
75285;SDS011;63879;46.064;14.532;2022-12-20T17:38:36;45.88;;;19.67;;
75285;SDS011;63879;46.064;14.532;2022-12-20T17:41:22;47.10;;;21.15;;
75285;SDS011;63879;46.064;14.532;2022-12-20T17:43:53;42.83;;;18.80;;
75285;SDS011;63879;46.064;14.532;2022-12-20T17:46:21;45.78;;;21.63;;
75285;SDS011;63879;46.064;14.532;2022-12-20T17:48:48;42.58;;;19.65;;
75285;SDS011;63879;46.064;14.532;2022-12-20T17:51:39;41.03;;;17.67;;
75285;SDS011;63879;46.064;14.532;2022-12-20T17:54:04;40.30;;;17.90;;
75285;SDS011;63879;46.064;14.532;2022-12-20T17:56:33;44.40;;;19.33;;
75285;SDS011;63879;46.064;14.532;2022-12-20T18:01:54;42.92;;;18.50;;
75285;SDS011;63879;46.064;14.532;2022-12-20T18:04:20;46.33;;;18.60;;
75285;SDS011;63879;46.064;14.532;2022-12-20T18:06:46;45.53;;;20.45;;
75285;SDS011;63879;46.064;14.532;2022-12-20T18:09:14;43.55;;;19.55;;
75285;SDS011;63879;46.064;14.532;2022-12-20T18:11:40;41.60;;;22.10;;
75285;SDS011;63879;46.064;14.532;2022-12-20T18:14:07;42.85;;;19.10;;
75285;SDS011;63879;46.064;14.532;2022-12-20T18:16:34;40.78;;;18.52;;
75285;SDS011;63879;46.064;14.532;2022-12-20T18:19:00;43.95;;;19.58;;
75285;SDS011;63879;46.064;14.532;2022-12-20T18:21:26;49.22;;;20.40;;
75285;SDS011;63879;46.064;14.532;2022-12-20T18:23:52;44.33;;;18.77;;
75285;SDS011;63879;46.064;14.532;2022-12-20T18:26:26;45.15;;;19.42;;
75285;SDS011;63879;46.064;14.532;2022-12-20T18:28:54;51.50;;;20.48;;
75285;SDS011;63879;46.064;14.532;2022-12-20T18:31:22;47.42;;;23.55;;
75285;SDS011;63879;46.064;14.532;2022-12-20T18:36:17;47.60;;;19.42;;
75285;SDS011;63879;46.064;14.532;2022-12-20T18:38:44;41.63;;;20.27;;
75285;SDS011;63879;46.064;14.532;2022-12-20T18:41:12;47.28;;;20.45;;
75285;SDS011;63879;46.064;14.532;2022-12-20T18:43:39;42.22;;;19.58;;
75285;SDS011;63879;46.064;14.532;2022-12-20T18:46:06;40.80;;;18.52;;
75285;SDS011;63879;46.064;14.532;2022-12-20T18:48:36;40.85;;;18.65;;
75285;SDS011;63879;46.064;14.532;2022-12-20T18:51:05;40.63;;;19.50;;
75285;SDS011;63879;46.064;14.532;2022-12-20T18:53:38;45.17;;;20.60;;
75285;SDS011;63879;46.064;14.532;2022-12-20T18:56:05;44.40;;;21.23;;
75285;SDS011;63879;46.064;14.532;2022-12-20T18:58:32;43.70;;;19.15;;
75285;SDS011;63879;46.064;14.532;2022-12-20T19:00:58;47.33;;;22.02;;
75285;SDS011;63879;46.064;14.532;2022-12-20T19:03:28;52.70;;;23.17;;
75285;SDS011;63879;46.064;14.532;2022-12-20T19:05:54;48.92;;;23.45;;
75285;SDS011;63879;46.064;14.532;2022-12-20T19:08:20;51.83;;;23.63;;
75285;SDS011;63879;46.064;14.532;2022-12-20T19:10:46;45.20;;;22.13;;
75285;SDS011;63879;46.064;14.532;2022-12-20T19:13:12;49.67;;;21.52;;
75285;SDS011;63879;46.064;14.532;2022-12-20T19:15:37;45.33;;;20.88;;
75285;SDS011;63879;46.064;14.532;2022-12-20T19:18:03;49.73;;;22.57;;
75285;SDS011;63879;46.064;14.532;2022-12-20T19:20:29;50.33;;;21.42;;
75285;SDS011;63879;46.064;14.532;2022-12-20T19:22:54;47.83;;;26.97;;
75285;SDS011;63879;46.064;14.532;2022-12-20T19:25:19;48.93;;;24.07;;
75285;SDS011;63879;46.064;14.532;2022-12-20T19:27:45;50.20;;;23.13;;
75285;SDS011;63879;46.064;14.532;2022-12-20T19:30:11;49.20;;;22.83;;
75285;SDS011;63879;46.064;14.532;2022-12-20T19:32:37;55.95;;;23.10;;
75285;SDS011;63879;46.064;14.532;2022-12-20T19:35:02;45.57;;;22.13;;
75285;SDS011;63879;46.064;14.532;2022-12-20T19:37:28;46.50;;;20.85;;
75285;SDS011;63879;46.064;14.532;2022-12-20T19:39:54;44.50;;;22.87;;
75285;SDS011;63879;46.064;14.532;2022-12-20T19:42:19;47.58;;;21.63;;
75285;SDS011;63879;46.064;14.532;2022-12-20T19:44:44;44.53;;;22.40;;
75285;SDS011;63879;46.064;14.532;2022-12-20T19:47:10;45.25;;;21.10;;
75285;SDS011;63879;46.064;14.532;2022-12-20T19:49:37;49.58;;;20.50;;
75285;SDS011;63879;46.064;14.532;2022-12-20T19:52:03;47.00;;;21.05;;
75285;SDS011;63879;46.064;14.532;2022-12-20T19:54:30;46.80;;;21.20;;
75285;SDS011;63879;46.064;14.532;2022-12-20T19:56:55;42.15;;;19.83;;
75285;SDS011;63879;46.064;14.532;2022-12-20T19:59:22;48.25;;;25.17;;
75285;SDS011;63879;46.064;14.532;2022-12-20T20:01:48;44.35;;;22.35;;
75285;SDS011;63879;46.064;14.532;2022-12-20T20:04:13;49.20;;;22.02;;
75285;SDS011;63879;46.064;14.532;2022-12-20T20:06:38;47.10;;;24.65;;
75285;SDS011;63879;46.064;14.532;2022-12-20T20:09:04;49.08;;;22.85;;
75285;SDS011;63879;46.064;14.532;2022-12-20T20:11:30;48.70;;;22.50;;
75285;SDS011;63879;46.064;14.532;2022-12-20T20:13:55;48.85;;;24.40;;
75285;SDS011;63879;46.064;14.532;2022-12-20T20:16:21;48.20;;;25.00;;
75285;SDS011;63879;46.064;14.532;2022-12-20T20:18:46;45.60;;;20.88;;
75285;SDS011;63879;46.064;14.532;2022-12-20T20:21:13;47.15;;;21.92;;
75285;SDS011;63879;46.064;14.532;2022-12-20T20:23:41;43.53;;;20.98;;
75285;SDS011;63879;46.064;14.532;2022-12-20T20:26:08;45.42;;;22.35;;
75285;SDS011;63879;46.064;14.532;2022-12-20T20:28:35;51.55;;;22.70;;
75285;SDS011;63879;46.064;14.532;2022-12-20T20:31:03;44.13;;;20.98;;
75285;SDS011;63879;46.064;14.532;2022-12-20T20:33:32;45.60;;;21.42;;
75285;SDS011;63879;46.064;14.532;2022-12-20T20:35:58;44.53;;;21.60;;
75285;SDS011;63879;46.064;14.532;2022-12-20T20:38:25;44.47;;;21.55;;
75285;SDS011;63879;46.064;14.532;2022-12-20T20:40:51;44.17;;;20.83;;
75285;SDS011;63879;46.064;14.532;2022-12-20T20:43:17;42.33;;;20.17;;
75285;SDS011;63879;46.064;14.532;2022-12-20T20:45:43;44.40;;;20.33;;
75285;SDS011;63879;46.064;14.532;2022-12-20T20:48:09;46.78;;;21.13;;
75285;SDS011;63879;46.064;14.532;2022-12-20T20:50:34;41.05;;;20.90;;
75285;SDS011;63879;46.064;14.532;2022-12-20T20:53:00;43.08;;;19.10;;
75285;SDS011;63879;46.064;14.532;2022-12-20T20:55:25;46.67;;;20.85;;
75285;SDS011;63879;46.064;14.532;2022-12-20T20:57:51;39.00;;;19.13;;
75285;SDS011;63879;46.064;14.532;2022-12-20T21:00:16;44.47;;;20.17;;
75285;SDS011;63879;46.064;14.532;2022-12-20T21:02:42;46.13;;;21.58;;
75285;SDS011;63879;46.064;14.532;2022-12-20T21:05:07;44.97;;;20.13;;
75285;SDS011;63879;46.064;14.532;2022-12-20T21:07:36;40.83;;;19.95;;
75285;SDS011;63879;46.064;14.532;2022-12-20T21:10:03;47.58;;;21.23;;
75285;SDS011;63879;46.064;14.532;2022-12-20T21:12:29;40.90;;;19.20;;
75285;SDS011;63879;46.064;14.532;2022-12-20T21:14:54;40.45;;;18.88;;
75285;SDS011;63879;46.064;14.532;2022-12-20T21:17:20;42.93;;;18.93;;
75285;SDS011;63879;46.064;14.532;2022-12-20T21:19:45;41.65;;;18.83;;
75285;SDS011;63879;46.064;14.532;2022-12-20T21:22:10;38.10;;;17.70;;
75285;SDS011;63879;46.064;14.532;2022-12-20T21:24:36;41.97;;;18.58;;
75285;SDS011;63879;46.064;14.532;2022-12-20T21:27:01;38.33;;;19.38;;
75285;SDS011;63879;46.064;14.532;2022-12-20T21:29:27;40.20;;;19.98;;
75285;SDS011;63879;46.064;14.532;2022-12-20T21:31:53;42.72;;;18.48;;
75285;SDS011;63879;46.064;14.532;2022-12-20T21:34:18;45.08;;;19.23;;
75285;SDS011;63879;46.064;14.532;2022-12-20T21:36:44;46.33;;;21.38;;
75285;SDS011;63879;46.064;14.532;2022-12-20T21:39:10;39.03;;;20.20;;
75285;SDS011;63879;46.064;14.532;2022-12-20T21:41:37;43.65;;;19.60;;
75285;SDS011;63879;46.064;14.532;2022-12-20T21:44:02;50.65;;;21.05;;
75285;SDS011;63879;46.064;14.532;2022-12-20T21:46:28;42.00;;;20.90;;
75285;SDS011;63879;46.064;14.532;2022-12-20T21:48:54;45.25;;;21.10;;
75285;SDS011;63879;46.064;14.532;2022-12-20T21:51:20;44.85;;;21.98;;
75285;SDS011;63879;46.064;14.532;2022-12-20T21:53:51;43.75;;;20.88;;
75285;SDS011;63879;46.064;14.532;2022-12-20T21:56:18;48.38;;;22.00;;
75285;SDS011;63879;46.064;14.532;2022-12-20T21:58:45;45.15;;;21.30;;
